sensor_id;sensor_type;location;lat;lon;timestamp;P1;durP1;ratioP1;P2;durP2;ratioP2
79401;SDS011;68857;47.916;106.940;2024-02-15T00:02:07;23.55;;;6.25;;
79401;SDS011;68857;47.916;106.940;2024-02-15T00:04:34;24.77;;;6.75;;
79401;SDS011;68857;47.916;106.940;2024-02-15T00:07:01;14.98;;;6.72;;
79401;SDS011;68857;47.916;106.940;2024-02-15T00:09:28;13.88;;;5.47;;
79401;SDS011;68857;47.916;106.940;2024-02-15T00:11:55;15.77;;;5.18;;
79401;SDS011;68857;47.916;106.940;2024-02-15T00:14:22;13.30;;;4.68;;
79401;SDS011;68857;47.916;106.940;2024-02-15T00:16:49;15.93;;;5.05;;
79401;SDS011;68857;47.916;106.940;2024-02-15T00:19:16;18.25;;;4.78;;
79401;SDS011;68857;47.916;106.940;2024-02-15T00:21:43;16.58;;;4.95;;
79401;SDS011;68857;47.916;106.940;2024-02-15T00:24:10;18.23;;;5.57;;
79401;SDS011;68857;47.916;106.940;2024-02-15T00:26:37;18.85;;;6.47;;
79401;SDS011;68857;47.916;106.940;2024-02-15T00:29:04;17.45;;;5.78;;
79401;SDS011;68857;47.916;106.940;2024-02-15T00:31:31;21.00;;;6.20;;
79401;SDS011;68857;47.916;106.940;2024-02-15T00:33:57;21.95;;;7.25;;
79401;SDS011;68857;47.916;106.940;2024-02-15T00:36:25;25.65;;;7.38;;
79401;SDS011;68857;47.916;106.940;2024-02-15T00:38:51;21.00;;;7.85;;
79401;SDS011;68857;47.916;106.940;2024-02-15T00:41:18;24.13;;;7.45;;
79401;SDS011;68857;47.916;106.940;2024-02-15T00:43:47;32.35;;;9.15;;
79401;SDS011;68857;47.916;106.940;2024-02-15T00:48:40;34.47;;;9.52;;
79401;SDS011;68857;47.916;106.940;2024-02-15T00:51:07;31.92;;;10.55;;
79401;SDS011;68857;47.916;106.940;2024-02-15T00:53:34;27.92;;;11.05;;
79401;SDS011;68857;47.916;106.940;2024-02-15T00:56:01;34.47;;;10.82;;
79401;SDS011;68857;47.916;106.940;2024-02-15T00:58:27;31.80;;;12.50;;
79401;SDS011;68857;47.916;106.940;2024-02-15T01:00:54;36.50;;;13.07;;
79401;SDS011;68857;47.916;106.940;2024-02-15T01:03:21;34.28;;;9.95;;
79401;SDS011;68857;47.916;106.940;2024-02-15T01:05:48;40.63;;;11.85;;
79401;SDS011;68857;47.916;106.940;2024-02-15T01:08:15;33.47;;;11.57;;
79401;SDS011;68857;47.916;106.940;2024-02-15T01:10:41;33.75;;;10.25;;
79401;SDS011;68857;47.916;106.940;2024-02-15T01:13:08;31.17;;;11.65;;
79401;SDS011;68857;47.916;106.940;2024-02-15T01:15:35;30.25;;;8.88;;
79401;SDS011;68857;47.916;106.940;2024-02-15T01:18:04;30.48;;;10.43;;
79401;SDS011;68857;47.916;106.940;2024-02-15T01:20:31;29.65;;;11.43;;
79401;SDS011;68857;47.916;106.940;2024-02-15T01:22:58;45.78;;;16.33;;
79401;SDS011;68857;47.916;106.940;2024-02-15T01:25:24;43.33;;;12.77;;
79401;SDS011;68857;47.916;106.940;2024-02-15T01:27:53;37.90;;;13.20;;
79401;SDS011;68857;47.916;106.940;2024-02-15T01:30:20;36.55;;;12.63;;
79401;SDS011;68857;47.916;106.940;2024-02-15T01:32:46;36.67;;;13.02;;
79401;SDS011;68857;47.916;106.940;2024-02-15T01:35:13;27.55;;;9.88;;
79401;SDS011;68857;47.916;106.940;2024-02-15T01:37:40;36.10;;;10.48;;
79401;SDS011;68857;47.916;106.940;2024-02-15T01:40:07;30.35;;;10.40;;
79401;SDS011;68857;47.916;106.940;2024-02-15T01:42:38;25.95;;;9.55;;
79401;SDS011;68857;47.916;106.940;2024-02-15T01:45:05;29.25;;;9.20;;
79401;SDS011;68857;47.916;106.940;2024-02-15T01:47:32;24.42;;;8.15;;
79401;SDS011;68857;47.916;106.940;2024-02-15T01:49:59;22.25;;;8.13;;
79401;SDS011;68857;47.916;106.940;2024-02-15T01:52:26;23.98;;;8.35;;
79401;SDS011;68857;47.916;106.940;2024-02-15T01:54:53;23.50;;;8.35;;
79401;SDS011;68857;47.916;106.940;2024-02-15T01:57:20;24.42;;;9.20;;
79401;SDS011;68857;47.916;106.940;2024-02-15T02:02:14;20.17;;;7.18;;
79401;SDS011;68857;47.916;106.940;2024-02-15T02:04:41;13.75;;;4.68;;
79401;SDS011;68857;47.916;106.940;2024-02-15T02:07:08;15.23;;;4.35;;
79401;SDS011;68857;47.916;106.940;2024-02-15T02:09:35;15.38;;;6.03;;
79401;SDS011;68857;47.916;106.940;2024-02-15T02:12:02;18.92;;;5.25;;
79401;SDS011;68857;47.916;106.940;2024-02-15T02:14:30;19.25;;;5.97;;
79401;SDS011;68857;47.916;106.940;2024-02-15T02:17:09;15.60;;;6.70;;
79401;SDS011;68857;47.916;106.940;2024-02-15T02:19:36;17.25;;;6.15;;
79401;SDS011;68857;47.916;106.940;2024-02-15T02:22:04;17.77;;;7.50;;
79401;SDS011;68857;47.916;106.940;2024-02-15T02:26:57;22.65;;;5.90;;
79401;SDS011;68857;47.916;106.940;2024-02-15T02:29:24;17.27;;;5.32;;
79401;SDS011;68857;47.916;106.940;2024-02-15T02:31:53;18.17;;;6.63;;
79401;SDS011;68857;47.916;106.940;2024-02-15T02:36:47;22.73;;;7.93;;
79401;SDS011;68857;47.916;106.940;2024-02-15T02:39:15;22.80;;;6.97;;
79401;SDS011;68857;47.916;106.940;2024-02-15T02:41:42;20.13;;;6.05;;
79401;SDS011;68857;47.916;106.940;2024-02-15T02:44:09;16.88;;;6.78;;
79401;SDS011;68857;47.916;106.940;2024-02-15T02:46:36;17.90;;;6.15;;
79401;SDS011;68857;47.916;106.940;2024-02-15T02:49:03;20.38;;;6.43;;
79401;SDS011;68857;47.916;106.940;2024-02-15T02:51:30;18.00;;;6.07;;
79401;SDS011;68857;47.916;106.940;2024-02-15T02:53:57;22.13;;;8.05;;
79401;SDS011;68857;47.916;106.940;2024-02-15T02:56:23;15.27;;;6.15;;
79401;SDS011;68857;47.916;106.940;2024-02-15T02:58:50;18.75;;;6.47;;
79401;SDS011;68857;47.916;106.940;2024-02-15T03:01:18;20.48;;;6.68;;
79401;SDS011;68857;47.916;106.940;2024-02-15T03:03:44;20.80;;;7.65;;
79401;SDS011;68857;47.916;106.940;2024-02-15T03:06:12;28.27;;;7.80;;
79401;SDS011;68857;47.916;106.940;2024-02-15T03:08:39;22.58;;;6.70;;
79401;SDS011;68857;47.916;106.940;2024-02-15T03:11:06;22.70;;;8.45;;
79401;SDS011;68857;47.916;106.940;2024-02-15T03:13:32;20.45;;;6.97;;
79401;SDS011;68857;47.916;106.940;2024-02-15T03:18:26;17.27;;;5.68;;
79401;SDS011;68857;47.916;106.940;2024-02-15T03:20:53;18.08;;;5.45;;
79401;SDS011;68857;47.916;106.940;2024-02-15T03:23:20;17.25;;;6.47;;
79401;SDS011;68857;47.916;106.940;2024-02-15T03:25:47;18.05;;;5.95;;
79401;SDS011;68857;47.916;106.940;2024-02-15T03:28:15;26.17;;;7.03;;
79401;SDS011;68857;47.916;106.940;2024-02-15T03:30:41;14.02;;;5.03;;
79401;SDS011;68857;47.916;106.940;2024-02-15T03:33:08;19.05;;;5.90;;
79401;SDS011;68857;47.916;106.940;2024-02-15T03:35:35;20.15;;;7.97;;
79401;SDS011;68857;47.916;106.940;2024-02-15T03:38:03;18.10;;;7.05;;
79401;SDS011;68857;47.916;106.940;2024-02-15T03:40:29;20.13;;;6.28;;
79401;SDS011;68857;47.916;106.940;2024-02-15T03:42:57;18.52;;;6.30;;
79401;SDS011;68857;47.916;106.940;2024-02-15T03:45:24;20.15;;;7.80;;
79401;SDS011;68857;47.916;106.940;2024-02-15T03:47:51;23.20;;;7.88;;
79401;SDS011;68857;47.916;106.940;2024-02-15T03:50:18;18.23;;;6.22;;
79401;SDS011;68857;47.916;106.940;2024-02-15T03:52:47;17.27;;;6.68;;
79401;SDS011;68857;47.916;106.940;2024-02-15T03:55:13;19.60;;;6.28;;
79401;SDS011;68857;47.916;106.940;2024-02-15T03:57:41;22.23;;;8.45;;
79401;SDS011;68857;47.916;106.940;2024-02-15T04:00:11;19.45;;;6.72;;
79401;SDS011;68857;47.916;106.940;2024-02-15T04:02:39;17.65;;;6.03;;
79401;SDS011;68857;47.916;106.940;2024-02-15T04:05:07;18.23;;;6.60;;
79401;SDS011;68857;47.916;106.940;2024-02-15T04:07:35;20.67;;;7.78;;
79401;SDS011;68857;47.916;106.940;2024-02-15T04:10:03;17.10;;;5.43;;
79401;SDS011;68857;47.916;106.940;2024-02-15T04:12:30;19.25;;;7.90;;
79401;SDS011;68857;47.916;106.940;2024-02-15T04:14:56;20.60;;;7.82;;
79401;SDS011;68857;47.916;106.940;2024-02-15T04:17:31;18.52;;;7.45;;
79401;SDS011;68857;47.916;106.940;2024-02-15T04:20:00;21.00;;;7.07;;
79401;SDS011;68857;47.916;106.940;2024-02-15T04:22:29;20.40;;;7.22;;
79401;SDS011;68857;47.916;106.940;2024-02-15T04:25:01;17.63;;;7.57;;
79401;SDS011;68857;47.916;106.940;2024-02-15T04:27:28;20.95;;;6.53;;
79401;SDS011;68857;47.916;106.940;2024-02-15T04:29:55;17.48;;;6.63;;
79401;SDS011;68857;47.916;106.940;2024-02-15T04:32:22;20.15;;;6.22;;
79401;SDS011;68857;47.916;106.940;2024-02-15T04:34:48;18.60;;;6.40;;
79401;SDS011;68857;47.916;106.940;2024-02-15T04:37:15;16.25;;;6.28;;
79401;SDS011;68857;47.916;106.940;2024-02-15T04:39:43;15.50;;;5.82;;
79401;SDS011;68857;47.916;106.940;2024-02-15T04:42:11;13.85;;;4.90;;
79401;SDS011;68857;47.916;106.940;2024-02-15T04:44:38;15.23;;;5.75;;
79401;SDS011;68857;47.916;106.940;2024-02-15T04:47:06;13.13;;;5.25;;
79401;SDS011;68857;47.916;106.940;2024-02-15T04:49:34;15.45;;;5.32;;
79401;SDS011;68857;47.916;106.940;2024-02-15T04:52:03;12.52;;;4.38;;
79401;SDS011;68857;47.916;106.940;2024-02-15T04:54:30;15.95;;;4.88;;
79401;SDS011;68857;47.916;106.940;2024-02-15T04:56:58;14.02;;;5.30;;
79401;SDS011;68857;47.916;106.940;2024-02-15T04:59:26;14.63;;;5.60;;
79401;SDS011;68857;47.916;106.940;2024-02-15T05:01:54;15.55;;;5.35;;
79401;SDS011;68857;47.916;106.940;2024-02-15T05:04:21;16.00;;;5.57;;
79401;SDS011;68857;47.916;106.940;2024-02-15T05:06:50;16.60;;;5.57;;
79401;SDS011;68857;47.916;106.940;2024-02-15T05:09:18;17.80;;;6.10;;
79401;SDS011;68857;47.916;106.940;2024-02-15T05:11:45;18.00;;;6.10;;
79401;SDS011;68857;47.916;106.940;2024-02-15T05:14:13;17.27;;;5.15;;
79401;SDS011;68857;47.916;106.940;2024-02-15T05:16:45;17.88;;;6.28;;
79401;SDS011;68857;47.916;106.940;2024-02-15T05:19:16;15.35;;;6.22;;
79401;SDS011;68857;47.916;106.940;2024-02-15T05:21:46;15.88;;;5.20;;
79401;SDS011;68857;47.916;106.940;2024-02-15T05:24:13;18.42;;;5.82;;
79401;SDS011;68857;47.916;106.940;2024-02-15T05:26:40;15.30;;;6.03;;
79401;SDS011;68857;47.916;106.940;2024-02-15T05:29:14;18.92;;;7.07;;
79401;SDS011;68857;47.916;106.940;2024-02-15T05:31:42;18.88;;;7.13;;
79401;SDS011;68857;47.916;106.940;2024-02-15T05:34:10;22.95;;;7.47;;
79401;SDS011;68857;47.916;106.940;2024-02-15T05:36:37;17.27;;;6.55;;
79401;SDS011;68857;47.916;106.940;2024-02-15T05:41:31;20.63;;;7.93;;
79401;SDS011;68857;47.916;106.940;2024-02-15T05:43:58;20.17;;;6.50;;
79401;SDS011;68857;47.916;106.940;2024-02-15T05:46:25;17.58;;;6.70;;
79401;SDS011;68857;47.916;106.940;2024-02-15T05:48:53;17.25;;;6.13;;
79401;SDS011;68857;47.916;106.940;2024-02-15T05:51:21;18.77;;;6.53;;
79401;SDS011;68857;47.916;106.940;2024-02-15T05:53:48;17.08;;;6.38;;
79401;SDS011;68857;47.916;106.940;2024-02-15T05:56:15;18.67;;;7.07;;
79401;SDS011;68857;47.916;106.940;2024-02-15T05:58:42;17.63;;;5.38;;
79401;SDS011;68857;47.916;106.940;2024-02-15T06:01:09;16.25;;;5.50;;
79401;SDS011;68857;47.916;106.940;2024-02-15T06:03:38;14.48;;;5.35;;
79401;SDS011;68857;47.916;106.940;2024-02-15T06:06:06;15.20;;;5.85;;
79401;SDS011;68857;47.916;106.940;2024-02-15T06:10:59;14.20;;;4.88;;
79401;SDS011;68857;47.916;106.940;2024-02-15T06:13:26;13.10;;;5.78;;
79401;SDS011;68857;47.916;106.940;2024-02-15T06:18:20;16.95;;;5.95;;
79401;SDS011;68857;47.916;106.940;2024-02-15T06:20:49;16.10;;;6.97;;
79401;SDS011;68857;47.916;106.940;2024-02-15T06:23:16;18.65;;;6.57;;
79401;SDS011;68857;47.916;106.940;2024-02-15T06:25:44;19.10;;;6.63;;
79401;SDS011;68857;47.916;106.940;2024-02-15T06:28:13;16.48;;;6.15;;
79401;SDS011;68857;47.916;106.940;2024-02-15T06:31:00;15.23;;;5.43;;
79401;SDS011;68857;47.916;106.940;2024-02-15T06:33:45;17.55;;;6.80;;
79401;SDS011;68857;47.916;106.940;2024-02-15T06:36:30;16.08;;;6.15;;
79401;SDS011;68857;47.916;106.940;2024-02-15T06:39:15;20.75;;;6.38;;
79401;SDS011;68857;47.916;106.940;2024-02-15T06:42:00;19.23;;;6.70;;
79401;SDS011;68857;47.916;106.940;2024-02-15T06:44:27;16.05;;;5.07;;
79401;SDS011;68857;47.916;106.940;2024-02-15T06:46:54;14.57;;;4.80;;
79401;SDS011;68857;47.916;106.940;2024-02-15T06:49:22;15.50;;;5.68;;
79401;SDS011;68857;47.916;106.940;2024-02-15T06:51:52;16.17;;;5.78;;
79401;SDS011;68857;47.916;106.940;2024-02-15T06:54:19;16.65;;;6.18;;
79401;SDS011;68857;47.916;106.940;2024-02-15T06:56:48;15.57;;;5.78;;
79401;SDS011;68857;47.916;106.940;2024-02-15T06:59:17;16.83;;;6.05;;
79401;SDS011;68857;47.916;106.940;2024-02-15T07:01:44;15.38;;;5.95;;
79401;SDS011;68857;47.916;106.940;2024-02-15T07:04:11;16.42;;;6.72;;
79401;SDS011;68857;47.916;106.940;2024-02-15T07:06:38;18.17;;;7.28;;
79401;SDS011;68857;47.916;106.940;2024-02-15T07:09:05;19.10;;;6.25;;
79401;SDS011;68857;47.916;106.940;2024-02-15T07:11:33;14.77;;;6.25;;
79401;SDS011;68857;47.916;106.940;2024-02-15T07:14:02;14.30;;;6.13;;
79401;SDS011;68857;47.916;106.940;2024-02-15T07:16:33;17.67;;;6.38;;
79401;SDS011;68857;47.916;106.940;2024-02-15T07:19:00;15.98;;;6.32;;
79401;SDS011;68857;47.916;106.940;2024-02-15T07:21:28;15.88;;;6.55;;
79401;SDS011;68857;47.916;106.940;2024-02-15T07:23:57;15.57;;;6.97;;
79401;SDS011;68857;47.916;106.940;2024-02-15T07:26:24;19.83;;;7.22;;
79401;SDS011;68857;47.916;106.940;2024-02-15T07:31:19;16.50;;;6.80;;
79401;SDS011;68857;47.916;106.940;2024-02-15T07:33:47;21.10;;;6.95;;
79401;SDS011;68857;47.916;106.940;2024-02-15T07:36:18;16.75;;;7.43;;
79401;SDS011;68857;47.916;106.940;2024-02-15T07:38:47;19.20;;;7.88;;
79401;SDS011;68857;47.916;106.940;2024-02-15T07:41:14;15.50;;;5.95;;
79401;SDS011;68857;47.916;106.940;2024-02-15T07:43:41;16.75;;;7.72;;
79401;SDS011;68857;47.916;106.940;2024-02-15T07:46:11;18.65;;;8.00;;
79401;SDS011;68857;47.916;106.940;2024-02-15T07:48:39;19.73;;;8.00;;
79401;SDS011;68857;47.916;106.940;2024-02-15T07:51:20;20.02;;;7.97;;
79401;SDS011;68857;47.916;106.940;2024-02-15T07:53:47;19.05;;;6.65;;
79401;SDS011;68857;47.916;106.940;2024-02-15T07:56:15;20.52;;;8.35;;
79401;SDS011;68857;47.916;106.940;2024-02-15T07:58:42;19.60;;;7.28;;
79401;SDS011;68857;47.916;106.940;2024-02-15T08:01:13;23.75;;;7.10;;
79401;SDS011;68857;47.916;106.940;2024-02-15T08:03:40;19.45;;;7.20;;
79401;SDS011;68857;47.916;106.940;2024-02-15T08:06:11;18.02;;;7.63;;
79401;SDS011;68857;47.916;106.940;2024-02-15T08:08:42;22.70;;;9.75;;
79401;SDS011;68857;47.916;106.940;2024-02-15T08:11:11;22.33;;;7.70;;
79401;SDS011;68857;47.916;106.940;2024-02-15T08:16:08;19.83;;;8.05;;
79401;SDS011;68857;47.916;106.940;2024-02-15T08:18:34;22.52;;;8.57;;
79401;SDS011;68857;47.916;106.940;2024-02-15T08:21:01;18.33;;;6.90;;
79401;SDS011;68857;47.916;106.940;2024-02-15T08:23:29;17.50;;;7.18;;
79401;SDS011;68857;47.916;106.940;2024-02-15T08:25:57;20.20;;;7.50;;
79401;SDS011;68857;47.916;106.940;2024-02-15T08:28:24;20.80;;;8.13;;
79401;SDS011;68857;47.916;106.940;2024-02-15T08:30:54;16.50;;;6.63;;
79401;SDS011;68857;47.916;106.940;2024-02-15T08:33:23;17.30;;;6.28;;
79401;SDS011;68857;47.916;106.940;2024-02-15T08:35:50;19.65;;;6.82;;
79401;SDS011;68857;47.916;106.940;2024-02-15T08:38:23;14.38;;;8.05;;
79401;SDS011;68857;47.916;106.940;2024-02-15T08:40:50;20.98;;;7.30;;
79401;SDS011;68857;47.916;106.940;2024-02-15T08:43:17;17.33;;;7.38;;
79401;SDS011;68857;47.916;106.940;2024-02-15T08:45:44;16.50;;;5.60;;
79401;SDS011;68857;47.916;106.940;2024-02-15T08:48:11;17.83;;;7.57;;
79401;SDS011;68857;47.916;106.940;2024-02-15T08:50:38;18.23;;;7.43;;
79401;SDS011;68857;47.916;106.940;2024-02-15T08:53:06;22.15;;;8.23;;
79401;SDS011;68857;47.916;106.940;2024-02-15T08:55:33;28.55;;;9.13;;
79401;SDS011;68857;47.916;106.940;2024-02-15T08:58:01;23.02;;;8.27;;
79401;SDS011;68857;47.916;106.940;2024-02-15T09:00:28;20.95;;;9.32;;
79401;SDS011;68857;47.916;106.940;2024-02-15T09:02:55;22.75;;;7.97;;
79401;SDS011;68857;47.916;106.940;2024-02-15T09:05:22;21.55;;;7.47;;
79401;SDS011;68857;47.916;106.940;2024-02-15T09:07:49;25.02;;;8.10;;
79401;SDS011;68857;47.916;106.940;2024-02-15T09:10:16;24.90;;;8.35;;
79401;SDS011;68857;47.916;106.940;2024-02-15T09:12:44;27.15;;;10.00;;
79401;SDS011;68857;47.916;106.940;2024-02-15T09:15:14;32.45;;;12.05;;
79401;SDS011;68857;47.916;106.940;2024-02-15T09:17:41;25.67;;;11.00;;
79401;SDS011;68857;47.916;106.940;2024-02-15T09:20:09;27.75;;;12.70;;
79401;SDS011;68857;47.916;106.940;2024-02-15T09:22:49;28.17;;;9.88;;
79401;SDS011;68857;47.916;106.940;2024-02-15T09:25:16;35.30;;;12.73;;
79401;SDS011;68857;47.916;106.940;2024-02-15T09:27:43;29.75;;;10.88;;
79401;SDS011;68857;47.916;106.940;2024-02-15T09:30:11;28.60;;;11.65;;
79401;SDS011;68857;47.916;106.940;2024-02-15T09:32:38;28.23;;;11.30;;
79401;SDS011;68857;47.916;106.940;2024-02-15T09:35:05;29.17;;;11.07;;
79401;SDS011;68857;47.916;106.940;2024-02-15T09:37:43;31.70;;;11.90;;
79401;SDS011;68857;47.916;106.940;2024-02-15T09:40:11;32.13;;;12.48;;
79401;SDS011;68857;47.916;106.940;2024-02-15T09:42:38;37.22;;;14.13;;
79401;SDS011;68857;47.916;106.940;2024-02-15T09:45:05;34.15;;;14.07;;
79401;SDS011;68857;47.916;106.940;2024-02-15T09:47:36;37.58;;;13.60;;
79401;SDS011;68857;47.916;106.940;2024-02-15T09:50:05;36.88;;;13.43;;
79401;SDS011;68857;47.916;106.940;2024-02-15T09:52:32;37.33;;;13.57;;
79401;SDS011;68857;47.916;106.940;2024-02-15T09:55:04;32.85;;;13.43;;
79401;SDS011;68857;47.916;106.940;2024-02-15T09:57:31;38.20;;;14.68;;
79401;SDS011;68857;47.916;106.940;2024-02-15T09:59:58;37.30;;;14.35;;
79401;SDS011;68857;47.916;106.940;2024-02-15T10:02:26;35.70;;;14.15;;
79401;SDS011;68857;47.916;106.940;2024-02-15T10:04:53;43.20;;;15.05;;
79401;SDS011;68857;47.916;106.940;2024-02-15T10:07:24;52.13;;;18.55;;
79401;SDS011;68857;47.916;106.940;2024-02-15T10:09:52;50.08;;;19.58;;
79401;SDS011;68857;47.916;106.940;2024-02-15T10:12:19;52.47;;;19.05;;
79401;SDS011;68857;47.916;106.940;2024-02-15T10:14:52;49.45;;;19.98;;
79401;SDS011;68857;47.916;106.940;2024-02-15T10:17:19;61.55;;;21.88;;
79401;SDS011;68857;47.916;106.940;2024-02-15T10:25:11;67.35;;;24.70;;
79401;SDS011;68857;47.916;106.940;2024-02-15T10:27:39;64.95;;;22.33;;
79401;SDS011;68857;47.916;106.940;2024-02-15T10:30:15;60.42;;;19.88;;
79401;SDS011;68857;47.916;106.940;2024-02-15T10:32:43;59.20;;;19.15;;
79401;SDS011;68857;47.916;106.940;2024-02-15T10:35:10;51.05;;;18.88;;
79401;SDS011;68857;47.916;106.940;2024-02-15T10:37:41;56.35;;;22.48;;
79401;SDS011;68857;47.916;106.940;2024-02-15T10:40:07;60.33;;;20.20;;
79401;SDS011;68857;47.916;106.940;2024-02-15T10:42:36;65.22;;;21.83;;
79401;SDS011;68857;47.916;106.940;2024-02-15T10:45:05;66.85;;;22.98;;
79401;SDS011;68857;47.916;106.940;2024-02-15T10:50:02;59.72;;;22.25;;
79401;SDS011;68857;47.916;106.940;2024-02-15T10:52:31;67.20;;;21.17;;
79401;SDS011;68857;47.916;106.940;2024-02-15T10:55:04;59.47;;;22.77;;
79401;SDS011;68857;47.916;106.940;2024-02-15T10:57:34;63.08;;;21.60;;
79401;SDS011;68857;47.916;106.940;2024-02-15T11:00:04;66.90;;;24.95;;
79401;SDS011;68857;47.916;106.940;2024-02-15T11:03:00;80.65;;;26.15;;
79401;SDS011;68857;47.916;106.940;2024-02-15T11:05:36;83.63;;;30.30;;
79401;SDS011;68857;47.916;106.940;2024-02-15T11:08:10;93.80;;;32.78;;
79401;SDS011;68857;47.916;106.940;2024-02-15T11:10:37;103.30;;;37.55;;
79401;SDS011;68857;47.916;106.940;2024-02-15T11:13:08;108.07;;;38.05;;
79401;SDS011;68857;47.916;106.940;2024-02-15T11:15:40;126.13;;;45.08;;
79401;SDS011;68857;47.916;106.940;2024-02-15T11:18:07;116.20;;;42.58;;
79401;SDS011;68857;47.916;106.940;2024-02-15T11:23:04;124.88;;;43.72;;
79401;SDS011;68857;47.916;106.940;2024-02-15T11:25:31;130.10;;;43.03;;
79401;SDS011;68857;47.916;106.940;2024-02-15T11:30:52;113.95;;;39.72;;
79401;SDS011;68857;47.916;106.940;2024-02-15T11:33:28;104.03;;;36.88;;
79401;SDS011;68857;47.916;106.940;2024-02-15T11:38:33;103.28;;;33.85;;
79401;SDS011;68857;47.916;106.940;2024-02-15T11:46:35;94.07;;;32.50;;
79401;SDS011;68857;47.916;106.940;2024-02-15T11:49:04;96.78;;;35.65;;
79401;SDS011;68857;47.916;106.940;2024-02-15T11:54:02;93.55;;;30.05;;
79401;SDS011;68857;47.916;106.940;2024-02-15T11:59:13;73.60;;;24.67;;
79401;SDS011;68857;47.916;106.940;2024-02-15T12:01:57;76.57;;;24.73;;
79401;SDS011;68857;47.916;106.940;2024-02-15T12:04:43;74.15;;;28.25;;
79401;SDS011;68857;47.916;106.940;2024-02-15T12:07:31;74.57;;;24.38;;
79401;SDS011;68857;47.916;106.940;2024-02-15T12:10:19;83.13;;;29.85;;
79401;SDS011;68857;47.916;106.940;2024-02-15T12:13:04;101.15;;;36.20;;
79401;SDS011;68857;47.916;106.940;2024-02-15T12:15:58;114.00;;;40.47;;
79401;SDS011;68857;47.916;106.940;2024-02-15T12:18:44;109.82;;;40.55;;
79401;SDS011;68857;47.916;106.940;2024-02-15T12:21:14;115.35;;;43.10;;
79401;SDS011;68857;47.916;106.940;2024-02-15T12:23:43;98.10;;;34.80;;
79401;SDS011;68857;47.916;106.940;2024-02-15T12:26:11;86.10;;;30.35;;
79401;SDS011;68857;47.916;106.940;2024-02-15T12:28:40;74.18;;;27.08;;
79401;SDS011;68857;47.916;106.940;2024-02-15T12:31:08;68.53;;;24.45;;
79401;SDS011;68857;47.916;106.940;2024-02-15T12:33:36;60.05;;;21.92;;
79401;SDS011;68857;47.916;106.940;2024-02-15T12:36:03;57.45;;;17.80;;
79401;SDS011;68857;47.916;106.940;2024-02-15T12:38:33;48.50;;;18.13;;
79401;SDS011;68857;47.916;106.940;2024-02-15T12:41:23;44.00;;;17.40;;
79401;SDS011;68857;47.916;106.940;2024-02-15T12:43:53;45.92;;;17.80;;
79401;SDS011;68857;47.916;106.940;2024-02-15T12:46:20;45.00;;;15.18;;
79401;SDS011;68857;47.916;106.940;2024-02-15T12:48:47;50.80;;;17.08;;
79401;SDS011;68857;47.916;106.940;2024-02-15T12:51:15;47.22;;;15.73;;
79401;SDS011;68857;47.916;106.940;2024-02-15T12:53:42;51.10;;;18.20;;
79401;SDS011;68857;47.916;106.940;2024-02-15T12:56:09;56.92;;;22.02;;
79401;SDS011;68857;47.916;106.940;2024-02-15T12:58:35;57.25;;;21.02;;
79401;SDS011;68857;47.916;106.940;2024-02-15T13:01:04;61.17;;;21.60;;
79401;SDS011;68857;47.916;106.940;2024-02-15T13:03:31;68.63;;;25.55;;
79401;SDS011;68857;47.916;106.940;2024-02-15T13:05:58;83.65;;;25.65;;
79401;SDS011;68857;47.916;106.940;2024-02-15T13:08:24;75.25;;;27.35;;
79401;SDS011;68857;47.916;106.940;2024-02-15T13:10:51;78.82;;;29.23;;
79401;SDS011;68857;47.916;106.940;2024-02-15T13:13:18;98.53;;;33.80;;
79401;SDS011;68857;47.916;106.940;2024-02-15T13:15:46;96.93;;;34.83;;
79401;SDS011;68857;47.916;106.940;2024-02-15T13:18:13;109.60;;;38.40;;
79401;SDS011;68857;47.916;106.940;2024-02-15T13:20:40;98.82;;;34.60;;
79401;SDS011;68857;47.916;106.940;2024-02-15T13:23:08;100.93;;;32.45;;
79401;SDS011;68857;47.916;106.940;2024-02-15T13:25:38;99.35;;;39.30;;
79401;SDS011;68857;47.916;106.940;2024-02-15T13:28:05;116.25;;;39.38;;
79401;SDS011;68857;47.916;106.940;2024-02-15T13:30:34;113.18;;;39.58;;
79401;SDS011;68857;47.916;106.940;2024-02-15T13:33:01;121.88;;;43.00;;
79401;SDS011;68857;47.916;106.940;2024-02-15T13:35:28;137.38;;;50.25;;
79401;SDS011;68857;47.916;106.940;2024-02-15T13:37:55;142.00;;;50.58;;
79401;SDS011;68857;47.916;106.940;2024-02-15T13:40:25;155.63;;;52.75;;
79401;SDS011;68857;47.916;106.940;2024-02-15T13:42:56;153.95;;;52.75;;
79401;SDS011;68857;47.916;106.940;2024-02-15T13:45:42;172.00;;;57.75;;
79401;SDS011;68857;47.916;106.940;2024-02-15T13:48:10;174.52;;;56.35;;
79401;SDS011;68857;47.916;106.940;2024-02-15T13:50:40;158.98;;;59.45;;
79401;SDS011;68857;47.916;106.940;2024-02-15T13:53:08;179.13;;;60.05;;
79401;SDS011;68857;47.916;106.940;2024-02-15T13:55:35;165.05;;;55.17;;
79401;SDS011;68857;47.916;106.940;2024-02-15T13:58:02;156.27;;;50.58;;
79401;SDS011;68857;47.916;106.940;2024-02-15T14:00:29;124.63;;;46.50;;
79401;SDS011;68857;47.916;106.940;2024-02-15T14:03:02;117.45;;;42.38;;
79401;SDS011;68857;47.916;106.940;2024-02-15T14:05:31;100.80;;;35.63;;
79401;SDS011;68857;47.916;106.940;2024-02-15T14:07:59;104.13;;;37.13;;
79401;SDS011;68857;47.916;106.940;2024-02-15T14:10:27;97.93;;;35.42;;
79401;SDS011;68857;47.916;106.940;2024-02-15T14:12:54;105.53;;;34.97;;
79401;SDS011;68857;47.916;106.940;2024-02-15T14:15:23;105.70;;;33.63;;
79401;SDS011;68857;47.916;106.940;2024-02-15T14:17:51;100.28;;;34.10;;
79401;SDS011;68857;47.916;106.940;2024-02-15T14:20:18;103.35;;;36.50;;
79401;SDS011;68857;47.916;106.940;2024-02-15T14:22:47;91.93;;;30.67;;
79401;SDS011;68857;47.916;106.940;2024-02-15T14:25:23;81.93;;;29.73;;
79401;SDS011;68857;47.916;106.940;2024-02-15T14:27:56;83.88;;;28.27;;
79401;SDS011;68857;47.916;106.940;2024-02-15T14:30:23;90.50;;;28.75;;
79401;SDS011;68857;47.916;106.940;2024-02-15T14:33:09;75.50;;;25.20;;
79401;SDS011;68857;47.916;106.940;2024-02-15T14:35:41;79.65;;;26.58;;
79401;SDS011;68857;47.916;106.940;2024-02-15T14:40:37;44.33;;;17.48;;
79401;SDS011;68857;47.916;106.940;2024-02-15T14:43:05;62.75;;;22.30;;
79401;SDS011;68857;47.916;106.940;2024-02-15T14:45:33;67.97;;;22.10;;
79401;SDS011;68857;47.916;106.940;2024-02-15T14:48:00;68.60;;;25.70;;
79401;SDS011;68857;47.916;106.940;2024-02-15T14:50:28;91.80;;;30.52;;
79401;SDS011;68857;47.916;106.940;2024-02-15T14:52:55;98.53;;;32.13;;
79401;SDS011;68857;47.916;106.940;2024-02-15T14:55:22;99.53;;;33.13;;
79401;SDS011;68857;47.916;106.940;2024-02-15T14:57:49;91.10;;;31.23;;
79401;SDS011;68857;47.916;106.940;2024-02-15T15:00:16;96.85;;;32.65;;
79401;SDS011;68857;47.916;106.940;2024-02-15T15:02:44;76.38;;;30.85;;
79401;SDS011;68857;47.916;106.940;2024-02-15T15:05:15;73.45;;;25.27;;